sensor_id;sensor_type;location;lat;lon;timestamp;pressure;altitude;pressure_sealevel;temperature;humidity
21658;BME280;10990;48.174;9.782;2023-03-21T00:01:13;94948.72;;;8.59;100.00
21658;BME280;10990;48.174;9.782;2023-03-21T00:03:40;94938.19;;;8.59;100.00
21658;BME280;10990;48.174;9.782;2023-03-21T00:06:09;94922.69;;;8.56;100.00
21658;BME280;10990;48.174;9.782;2023-03-21T00:08:38;94927.31;;;8.53;100.00
21658;BME280;10990;48.174;9.782;2023-03-21T00:11:07;94920.22;;;8.54;100.00
21658;BME280;10990;48.174;9.782;2023-03-21T00:13:34;94923.16;;;8.33;100.00
21658;BME280;10990;48.174;9.782;2023-03-21T00:16:03;94920.03;;;8.29;100.00
21658;BME280;10990;48.174;9.782;2023-03-21T00:18:31;94903.53;;;8.45;100.00
21658;BME280;10990;48.174;9.782;2023-03-21T00:21:02;94909.25;;;8.67;100.00
21658;BME280;10990;48.174;9.782;2023-03-21T00:23:31;94913.38;;;8.69;100.00
21658;BME280;10990;48.174;9.782;2023-03-21T00:25:59;94930.91;;;8.52;100.00
21658;BME280;10990;48.174;9.782;2023-03-21T00:28:26;94913.00;;;8.56;100.00
21658;BME280;10990;48.174;9.782;2023-03-21T00:30:56;94908.00;;;8.53;100.00
21658;BME280;10990;48.174;9.782;2023-03-21T00:33:23;94893.38;;;8.59;100.00
21658;BME280;10990;48.174;9.782;2023-03-21T00:35:51;94894.84;;;8.53;100.00
21658;BME280;10990;48.174;9.782;2023-03-21T00:38:18;94895.81;;;8.52;100.00
21658;BME280;10990;48.174;9.782;2023-03-21T00:40:45;94884.47;;;8.51;100.00
21658;BME280;10990;48.174;9.782;2023-03-21T00:43:15;94887.41;;;8.48;100.00
21658;BME280;10990;48.174;9.782;2023-03-21T00:45:43;94885.28;;;8.52;100.00
21658;BME280;10990;48.174;9.782;2023-03-21T00:48:11;94886.97;;;8.35;100.00
21658;BME280;10990;48.174;9.782;2023-03-21T00:50:39;94863.66;;;8.40;100.00
21658;BME280;10990;48.174;9.782;2023-03-21T00:53:10;94861.16;;;8.39;100.00
21658;BME280;10990;48.174;9.782;2023-03-21T00:55:36;94852.16;;;8.23;100.00
21658;BME280;10990;48.174;9.782;2023-03-21T00:58:04;94828.59;;;8.22;100.00
21658;BME280;10990;48.174;9.782;2023-03-21T01:00:33;94821.38;;;8.24;100.00
21658;BME280;10990;48.174;9.782;2023-03-21T01:03:02;94817.22;;;8.21;100.00
21658;BME280;10990;48.174;9.782;2023-03-21T01:05:33;94812.97;;;8.20;100.00
21658;BME280;10990;48.174;9.782;2023-03-21T01:08:18;94802.78;;;7.99;100.00
21658;BME280;10990;48.174;9.782;2023-03-21T01:10:47;94792.97;;;8.09;100.00
21658;BME280;10990;48.174;9.782;2023-03-21T01:13:15;94776.31;;;8.01;100.00
21658;BME280;10990;48.174;9.782;2023-03-21T01:15:46;94764.16;;;8.08;100.00
21658;BME280;10990;48.174;9.782;2023-03-21T01:18:14;94749.47;;;7.97;100.00
21658;BME280;10990;48.174;9.782;2023-03-21T01:20:43;94730.16;;;7.89;100.00
21658;BME280;10990;48.174;9.782;2023-03-21T01:23:12;94721.72;;;7.85;100.00
21658;BME280;10990;48.174;9.782;2023-03-21T01:25:40;94707.44;;;7.88;100.00
21658;BME280;10990;48.174;9.782;2023-03-21T01:28:07;94704.41;;;7.74;100.00
21658;BME280;10990;48.174;9.782;2023-03-21T01:30:35;94688.97;;;7.79;100.00
21658;BME280;10990;48.174;9.782;2023-03-21T01:33:03;94687.88;;;7.90;100.00
21658;BME280;10990;48.174;9.782;2023-03-21T01:35:30;94698.25;;;7.92;100.00
21658;BME280;10990;48.174;9.782;2023-03-21T01:37:57;94686.78;;;8.01;100.00
21658;BME280;10990;48.174;9.782;2023-03-21T01:40:25;94683.72;;;8.22;100.00
21658;BME280;10990;48.174;9.782;2023-03-21T01:43:22;94702.00;;;8.23;100.00
21658;BME280;10990;48.174;9.782;2023-03-21T01:49:24;94719.09;;;8.11;100.00
21658;BME280;10990;48.174;9.782;2023-03-21T01:52:05;94713.53;;;7.88;100.00
21658;BME280;10990;48.174;9.782;2023-03-21T01:54:36;94694.03;;;8.07;100.00
21658;BME280;10990;48.174;9.782;2023-03-21T01:57:07;94690.94;;;8.12;100.00
21658;BME280;10990;48.174;9.782;2023-03-21T01:59:38;94698.28;;;8.00;100.00
21658;BME280;10990;48.174;9.782;2023-03-21T02:02:27;94701.13;;;8.06;100.00
21658;BME280;10990;48.174;9.782;2023-03-21T02:05:22;94706.84;;;8.02;100.00
21658;BME280;10990;48.174;9.782;2023-03-21T02:07:52;94706.38;;;8.06;100.00
21658;BME280;10990;48.174;9.782;2023-03-21T02:10:20;94711.00;;;8.13;100.00
21658;BME280;10990;48.174;9.782;2023-03-21T02:12:50;94715.16;;;8.15;100.00
21658;BME280;10990;48.174;9.782;2023-03-21T02:15:19;94714.81;;;8.18;100.00
21658;BME280;10990;48.174;9.782;2023-03-21T02:18:02;94702.75;;;8.07;100.00
21658;BME280;10990;48.174;9.782;2023-03-21T02:20:51;94710.38;;;7.84;100.00
21658;BME280;10990;48.174;9.782;2023-03-21T02:26:37;94673.78;;;8.07;100.00
21658;BME280;10990;48.174;9.782;2023-03-21T02:29:28;94678.25;;;8.07;100.00
21658;BME280;10990;48.174;9.782;2023-03-21T02:32:08;94683.81;;;8.04;100.00
21658;BME280;10990;48.174;9.782;2023-03-21T02:34:49;94682.69;;;8.06;100.00
21658;BME280;10990;48.174;9.782;2023-03-21T02:37:23;94678.41;;;8.05;100.00
21658;BME280;10990;48.174;9.782;2023-03-21T02:40:05;94683.22;;;8.18;100.00
21658;BME280;10990;48.174;9.782;2023-03-21T02:42:46;94692.75;;;8.19;100.00
21658;BME280;10990;48.174;9.782;2023-03-21T02:45:18;94690.03;;;7.95;100.00
21658;BME280;10990;48.174;9.782;2023-03-21T02:47:56;94674.94;;;8.05;100.00
21658;BME280;10990;48.174;9.782;2023-03-21T02:50:27;94670.69;;;8.12;100.00
21658;BME280;10990;48.174;9.782;2023-03-21T02:53:01;94675.97;;;8.12;100.00
21658;BME280;10990;48.174;9.782;2023-03-21T02:55:31;94679.59;;;8.11;100.00
21658;BME280;10990;48.174;9.782;2023-03-21T02:58:02;94684.84;;;8.11;100.00
21658;BME280;10990;48.174;9.782;2023-03-21T03:00:32;94697.16;;;8.11;100.00
21658;BME280;10990;48.174;9.782;2023-03-21T03:03:01;94692.28;;;8.24;100.00
21658;BME280;10990;48.174;9.782;2023-03-21T03:05:30;94703.81;;;8.23;100.00
21658;BME280;10990;48.174;9.782;2023-03-21T03:08:10;94710.22;;;8.20;100.00
21658;BME280;10990;48.174;9.782;2023-03-21T03:10:53;94700.47;;;8.13;100.00
21658;BME280;10990;48.174;9.782;2023-03-21T03:13:35;94713.09;;;8.01;100.00
21658;BME280;10990;48.174;9.782;2023-03-21T03:16:10;94706.09;;;7.83;100.00
21658;BME280;10990;48.174;9.782;2023-03-21T03:18:48;94684.28;;;7.99;100.00
21658;BME280;10990;48.174;9.782;2023-03-21T03:21:19;94691.88;;;8.02;100.00
21658;BME280;10990;48.174;9.782;2023-03-21T03:23:51;94707.13;;;7.91;100.00
21658;BME280;10990;48.174;9.782;2023-03-21T03:26:25;94683.78;;;7.96;100.00
21658;BME280;10990;48.174;9.782;2023-03-21T03:28:59;94676.06;;;7.94;100.00
21658;BME280;10990;48.174;9.782;2023-03-21T03:31:30;94657.78;;;7.93;100.00
21658;BME280;10990;48.174;9.782;2023-03-21T03:34:04;94659.91;;;7.89;100.00
21658;BME280;10990;48.174;9.782;2023-03-21T03:36:39;94649.16;;;7.82;100.00
21658;BME280;10990;48.174;9.782;2023-03-21T03:39:13;94640.72;;;7.71;100.00
21658;BME280;10990;48.174;9.782;2023-03-21T03:41:54;94638.75;;;7.73;100.00
21658;BME280;10990;48.174;9.782;2023-03-21T03:44:28;94643.13;;;7.90;100.00
21658;BME280;10990;48.174;9.782;2023-03-21T03:47:03;94643.44;;;7.87;100.00
21658;BME280;10990;48.174;9.782;2023-03-21T03:49:36;94643.31;;;7.62;100.00
21658;BME280;10990;48.174;9.782;2023-03-21T03:52:08;94623.66;;;7.75;100.00
21658;BME280;10990;48.174;9.782;2023-03-21T03:54:46;94623.81;;;7.81;100.00
21658;BME280;10990;48.174;9.782;2023-03-21T03:57:14;94612.31;;;7.74;100.00
21658;BME280;10990;48.174;9.782;2023-03-21T03:59:43;94620.63;;;7.61;100.00
21658;BME280;10990;48.174;9.782;2023-03-21T04:02:22;94612.19;;;7.50;100.00
21658;BME280;10990;48.174;9.782;2023-03-21T04:04:52;94601.97;;;7.47;100.00
21658;BME280;10990;48.174;9.782;2023-03-21T04:07:22;94577.69;;;7.61;100.00
21658;BME280;10990;48.174;9.782;2023-03-21T04:09:53;94574.84;;;7.54;100.00
21658;BME280;10990;48.174;9.782;2023-03-21T04:12:20;94554.97;;;7.60;100.00
21658;BME280;10990;48.174;9.782;2023-03-21T04:15:13;94553.69;;;7.64;100.00
21658;BME280;10990;48.174;9.782;2023-03-21T04:17:46;94560.59;;;7.65;100.00
21658;BME280;10990;48.174;9.782;2023-03-21T04:20:12;94560.09;;;7.61;100.00
21658;BME280;10990;48.174;9.782;2023-03-21T04:22:39;94554.47;;;7.56;100.00
21658;BME280;10990;48.174;9.782;2023-03-21T04:25:08;94561.84;;;7.45;100.00
21658;BME280;10990;48.174;9.782;2023-03-21T04:27:36;94548.53;;;7.46;100.00
21658;BME280;10990;48.174;9.782;2023-03-21T04:30:23;94536.03;;;7.48;100.00
21658;BME280;10990;48.174;9.782;2023-03-21T04:33:02;94528.97;;;7.57;100.00
21658;BME280;10990;48.174;9.782;2023-03-21T04:35:32;94525.53;;;7.56;100.00
21658;BME280;10990;48.174;9.782;2023-03-21T04:38:01;94530.13;;;7.46;100.00
21658;BME280;10990;48.174;9.782;2023-03-21T04:40:29;94525.22;;;7.59;100.00
21658;BME280;10990;48.174;9.782;2023-03-21T04:42:55;94527.34;;;7.56;100.00
21658;BME280;10990;48.174;9.782;2023-03-21T04:45:22;94523.03;;;7.47;100.00
21658;BME280;10990;48.174;9.782;2023-03-21T04:47:49;94527.63;;;7.45;100.00
21658;BME280;10990;48.174;9.782;2023-03-21T04:50:16;94522.72;;;7.50;100.00
21658;BME280;10990;48.174;9.782;2023-03-21T04:52:43;94524.41;;;7.59;100.00
21658;BME280;10990;48.174;9.782;2023-03-21T04:55:09;94528.16;;;7.56;100.00
21658;BME280;10990;48.174;9.782;2023-03-21T04:57:39;94534.75;;;7.52;100.00
21658;BME280;10990;48.174;9.782;2023-03-21T05:00:07;94527.16;;;7.49;100.00
21658;BME280;10990;48.174;9.782;2023-03-21T05:02:39;94526.53;;;7.55;100.00
21658;BME280;10990;48.174;9.782;2023-03-21T05:05:06;94531.94;;;7.54;100.00
21658;BME280;10990;48.174;9.782;2023-03-21T05:07:36;94531.28;;;7.52;100.00
21658;BME280;10990;48.174;9.782;2023-03-21T05:10:04;94537.88;;;7.56;100.00
21658;BME280;10990;48.174;9.782;2023-03-21T05:12:31;94546.41;;;7.50;100.00
21658;BME280;10990;48.174;9.782;2023-03-21T05:15:00;94543.59;;;7.51;100.00
21658;BME280;10990;48.174;9.782;2023-03-21T05:17:26;94533.56;;;7.47;100.00
21658;BME280;10990;48.174;9.782;2023-03-21T05:19:55;94532.75;;;7.46;100.00
21658;BME280;10990;48.174;9.782;2023-03-21T05:22:23;94527.22;;;7.57;100.00
21658;BME280;10990;48.174;9.782;2023-03-21T05:24:52;94527.06;;;7.67;100.00
21658;BME280;10990;48.174;9.782;2023-03-21T05:27:38;94537.56;;;7.59;100.00
21658;BME280;10990;48.174;9.782;2023-03-21T05:30:13;94535.56;;;7.53;100.00
21658;BME280;10990;48.174;9.782;2023-03-21T05:32:41;94531.47;;;7.58;100.00
21658;BME280;10990;48.174;9.782;2023-03-21T05:35:10;94545.38;;;7.43;100.00
21658;BME280;10990;48.174;9.782;2023-03-21T05:37:37;94536.88;;;7.57;100.00
21658;BME280;10990;48.174;9.782;2023-03-21T05:40:07;94545.72;;;7.48;100.00
21658;BME280;10990;48.174;9.782;2023-03-21T05:42:36;94540.78;;;7.45;100.00
21658;BME280;10990;48.174;9.782;2023-03-21T05:45:15;94543.50;;;7.61;100.00
21658;BME280;10990;48.174;9.782;2023-03-21T05:47:42;94549.75;;;7.68;100.00
21658;BME280;10990;48.174;9.782;2023-03-21T05:50:11;94571.28;;;7.63;100.00
21658;BME280;10990;48.174;9.782;2023-03-21T05:52:41;94568.69;;;7.72;100.00
21658;BME280;10990;48.174;9.782;2023-03-21T05:55:12;94572.97;;;7.73;100.00
21658;BME280;10990;48.174;9.782;2023-03-21T05:57:38;94591.13;;;7.50;100.00
21658;BME280;10990;48.174;9.782;2023-03-21T06:00:10;94582.09;;;7.52;100.00
21658;BME280;10990;48.174;9.782;2023-03-21T06:02:47;94568.06;;;7.78;100.00
21658;BME280;10990;48.174;9.782;2023-03-21T06:05:46;94588.72;;;7.64;100.00
21658;BME280;10990;48.174;9.782;2023-03-21T06:08:19;94580.72;;;7.74;100.00
21658;BME280;10990;48.174;9.782;2023-03-21T06:10:46;94597.31;;;7.75;100.00
21658;BME280;10990;48.174;9.782;2023-03-21T06:13:12;94585.88;;;7.92;100.00
21658;BME280;10990;48.174;9.782;2023-03-21T06:15:40;94588.69;;;7.99;100.00
21658;BME280;10990;48.174;9.782;2023-03-21T06:18:15;94587.38;;;8.03;100.00
21658;BME280;10990;48.174;9.782;2023-03-21T06:20:53;94596.41;;;7.92;100.00
21658;BME280;10990;48.174;9.782;2023-03-21T06:23:21;94587.53;;;8.01;100.00
21658;BME280;10990;48.174;9.782;2023-03-21T06:25:49;94605.59;;;7.88;100.00
21658;BME280;10990;48.174;9.782;2023-03-21T06:28:16;94600.56;;;8.03;100.00
21658;BME280;10990;48.174;9.782;2023-03-21T06:30:42;94601.63;;;7.84;100.00
21658;BME280;10990;48.174;9.782;2023-03-21T06:33:21;94602.75;;;7.73;100.00
21658;BME280;10990;48.174;9.782;2023-03-21T06:35:50;94598.63;;;7.71;100.00
21658;BME280;10990;48.174;9.782;2023-03-21T06:38:18;94579.09;;;7.81;100.00
21658;BME280;10990;48.174;9.782;2023-03-21T06:40:46;94583.06;;;7.94;100.00
21658;BME280;10990;48.174;9.782;2023-03-21T06:43:13;94577.38;;;8.15;100.00
21658;BME280;10990;48.174;9.782;2023-03-21T06:45:41;94583.94;;;8.11;100.00
21658;BME280;10990;48.174;9.782;2023-03-21T06:48:10;94584.41;;;7.98;100.00
21658;BME280;10990;48.174;9.782;2023-03-21T06:50:48;94580.16;;;8.13;100.00
21658;BME280;10990;48.174;9.782;2023-03-21T06:53:16;94582.16;;;8.27;100.00
21658;BME280;10990;48.174;9.782;2023-03-21T06:56:04;94587.66;;;8.59;100.00
21658;BME280;10990;48.174;9.782;2023-03-21T06:58:32;94611.38;;;8.67;100.00
21658;BME280;10990;48.174;9.782;2023-03-21T07:01:00;94639.56;;;8.74;100.00
21658;BME280;10990;48.174;9.782;2023-03-21T07:03:28;94683.88;;;8.63;100.00
21658;BME280;10990;48.174;9.782;2023-03-21T07:06:04;94692.81;;;8.86;100.00
21658;BME280;10990;48.174;9.782;2023-03-21T07:08:31;94714.44;;;8.90;100.00
21658;BME280;10990;48.174;9.782;2023-03-21T07:10:58;94730.44;;;9.13;100.00
21658;BME280;10990;48.174;9.782;2023-03-21T07:13:25;94764.44;;;9.32;100.00
21658;BME280;10990;48.174;9.782;2023-03-21T07:15:57;94814.88;;;9.29;100.00
21658;BME280;10990;48.174;9.782;2023-03-21T07:18:24;94815.72;;;9.30;100.00
21658;BME280;10990;48.174;9.782;2023-03-21T07:20:51;94823.66;;;9.46;100.00
21658;BME280;10990;48.174;9.782;2023-03-21T07:23:22;94846.44;;;9.63;100.00
21658;BME280;10990;48.174;9.782;2023-03-21T07:25:50;94872.69;;;9.90;100.00
21658;BME280;10990;48.174;9.782;2023-03-21T07:28:18;94910.81;;;9.95;100.00
21658;BME280;10990;48.174;9.782;2023-03-21T07:30:51;94922.56;;;10.09;100.00
21658;BME280;10990;48.174;9.782;2023-03-21T07:33:18;94954.94;;;10.19;100.00
21658;BME280;10990;48.174;9.782;2023-03-21T07:35:45;94970.31;;;10.32;100.00
21658;BME280;10990;48.174;9.782;2023-03-21T07:38:12;95000.72;;;10.28;100.00
21658;BME280;10990;48.174;9.782;2023-03-21T07:40:43;95026.75;;;10.06;100.00
21658;BME280;10990;48.174;9.782;2023-03-21T07:43:09;95043.13;;;10.18;100.00
21658;BME280;10990;48.174;9.782;2023-03-21T07:45:38;95064.44;;;10.25;100.00
21658;BME280;10990;48.174;9.782;2023-03-21T07:48:06;95071.38;;;10.26;100.00
21658;BME280;10990;48.174;9.782;2023-03-21T07:50:33;95087.50;;;10.57;100.00
21658;BME280;10990;48.174;9.782;2023-03-21T07:53:00;95142.19;;;10.48;100.00
21658;BME280;10990;48.174;9.782;2023-03-21T07:55:26;95171.16;;;9.90;100.00
21658;BME280;10990;48.174;9.782;2023-03-21T07:57:54;95147.06;;;10.27;100.00
21658;BME280;10990;48.174;9.782;2023-03-21T08:00:22;95154.56;;;10.48;100.00
21658;BME280;10990;48.174;9.782;2023-03-21T08:02:50;95174.41;;;10.52;100.00
21658;BME280;10990;48.174;9.782;2023-03-21T08:05:20;95197.44;;;10.68;100.00
21658;BME280;10990;48.174;9.782;2023-03-21T08:07:47;95202.59;;;10.86;100.00
21658;BME280;10990;48.174;9.782;2023-03-21T08:10:14;95224.94;;;10.99;100.00
21658;BME280;10990;48.174;9.782;2023-03-21T08:12:41;95259.19;;;11.09;100.00
21658;BME280;10990;48.174;9.782;2023-03-21T08:15:10;95301.22;;;10.70;100.00
21658;BME280;10990;48.174;9.782;2023-03-21T08:17:37;95289.38;;;10.82;100.00
21658;BME280;10990;48.174;9.782;2023-03-21T08:20:05;95277.41;;;11.12;100.00
21658;BME280;10990;48.174;9.782;2023-03-21T08:22:33;95298.75;;;11.19;100.00
21658;BME280;10990;48.174;9.782;2023-03-21T08:25:01;95306.75;;;11.60;100.00
21658;BME280;10990;48.174;9.782;2023-03-21T08:27:29;95351.41;;;11.38;100.00
21658;BME280;10990;48.174;9.782;2023-03-21T08:29:56;95339.56;;;11.75;100.00
21658;BME280;10990;48.174;9.782;2023-03-21T08:32:24;95371.78;;;11.54;100.00
21658;BME280;10990;48.174;9.782;2023-03-21T08:34:54;95368.03;;;11.73;100.00
21658;BME280;10990;48.174;9.782;2023-03-21T08:37:22;95382.34;;;11.30;100.00
21658;BME280;10990;48.174;9.782;2023-03-21T08:39:49;95362.25;;;11.11;100.00
21658;BME280;10990;48.174;9.782;2023-03-21T08:42:16;95354.13;;;11.63;100.00
21658;BME280;10990;48.174;9.782;2023-03-21T08:44:43;95368.69;;;11.75;100.00
21658;BME280;10990;48.174;9.782;2023-03-21T08:47:10;95400.31;;;11.69;100.00
21658;BME280;10990;48.174;9.782;2023-03-21T08:49:38;95418.91;;;11.93;100.00
21658;BME280;10990;48.174;9.782;2023-03-21T08:52:05;95450.59;;;12.27;100.00
21658;BME280;10990;48.174;9.782;2023-03-21T08:54:32;95478.09;;;12.26;100.00
21658;BME280;10990;48.174;9.782;2023-03-21T08:56:58;95480.75;;;12.18;100.00
21658;BME280;10990;48.174;9.782;2023-03-21T08:59:25;95476.63;;;12.32;100.00
21658;BME280;10990;48.174;9.782;2023-03-21T09:01:52;95477.25;;;12.99;100.00
21658;BME280;10990;48.174;9.782;2023-03-21T09:04:18;95542.13;;;13.05;100.00
21658;BME280;10990;48.174;9.782;2023-03-21T09:06:47;95557.38;;;12.95;100.00
21658;BME280;10990;48.174;9.782;2023-03-21T09:09:14;95573.97;;;13.13;100.00
21658;BME280;10990;48.174;9.782;2023-03-21T09:11:41;95593.56;;;13.37;100.00
21658;BME280;10990;48.174;9.782;2023-03-21T09:14:08;95590.41;;;13.50;100.00
21658;BME280;10990;48.174;9.782;2023-03-21T09:16:36;95630.91;;;13.11;100.00
21658;BME280;10990;48.174;9.782;2023-03-21T09:19:03;95618.44;;;13.11;100.00
21658;BME280;10990;48.174;9.782;2023-03-21T09:21:33;95622.78;;;13.45;100.00
21658;BME280;10990;48.174;9.782;2023-03-21T09:24:01;95643.19;;;13.61;100.00
21658;BME280;10990;48.174;9.782;2023-03-21T09:26:30;95661.13;;;13.67;100.00
21658;BME280;10990;48.174;9.782;2023-03-21T09:28:57;95680.06;;;13.64;100.00
21658;BME280;10990;48.174;9.782;2023-03-21T09:31:25;95680.19;;;13.87;100.00
21658;BME280;10990;48.174;9.782;2023-03-21T09:33:53;95677.44;;;14.20;100.00
21658;BME280;10990;48.174;9.782;2023-03-21T09:36:20;95705.63;;;13.81;100.00
21658;BME280;10990;48.174;9.782;2023-03-21T09:38:49;95706.09;;;13.77;100.00
21658;BME280;10990;48.174;9.782;2023-03-21T09:41:32;95703.50;;;13.68;100.00
21658;BME280;10990;48.174;9.782;2023-03-21T09:44:10;95720.38;;;14.08;100.00
21658;BME280;10990;48.174;9.782;2023-03-21T09:46:44;95737.31;;;15.02;100.00
21658;BME280;10990;48.174;9.782;2023-03-21T09:49:17;95781.19;;;15.77;100.00
21658;BME280;10990;48.174;9.782;2023-03-21T09:51:47;95809.53;;;15.93;100.00
21658;BME280;10990;48.174;9.782;2023-03-21T09:54:20;95827.56;;;16.14;100.00
21658;BME280;10990;48.174;9.782;2023-03-21T09:56:53;95838.53;;;15.73;100.00
21658;BME280;10990;48.174;9.782;2023-03-21T09:59:26;95824.59;;;15.63;100.00
21658;BME280;10990;48.174;9.782;2023-03-21T10:01:55;95825.25;;;15.88;100.00
21658;BME280;10990;48.174;9.782;2023-03-21T10:04:24;95831.63;;;16.25;100.00
21658;BME280;10990;48.174;9.782;2023-03-21T10:06:55;95821.25;;;17.48;100.00
21658;BME280;10990;48.174;9.782;2023-03-21T10:09:25;95831.75;;;18.86;100.00
21658;BME280;10990;48.174;9.782;2023-03-21T10:11:56;95839.31;;;19.65;100.00
21658;BME280;10990;48.174;9.782;2023-03-21T10:14:27;95842.41;;;20.63;100.00
21658;BME280;10990;48.174;9.782;2023-03-21T10:16:58;95837.84;;;19.56;100.00
21658;BME280;10990;48.174;9.782;2023-03-21T10:19:27;95849.09;;;17.76;100.00
21658;BME280;10990;48.174;9.782;2023-03-21T10:21:54;95840.63;;;18.08;100.00
21658;BME280;10990;48.174;9.782;2023-03-21T10:24:23;95835.66;;;18.05;100.00
21658;BME280;10990;48.174;9.782;2023-03-21T10:26:52;95840.19;;;17.68;100.00
21658;BME280;10990;48.174;9.782;2023-03-21T10:29:23;95850.75;;;16.66;100.00
21658;BME280;10990;48.174;9.782;2023-03-21T10:31:52;95835.16;;;16.93;100.00
21658;BME280;10990;48.174;9.782;2023-03-21T10:34:27;95829.38;;;17.25;100.00
21658;BME280;10990;48.174;9.782;2023-03-21T10:36:56;95838.34;;;17.18;100.00
21658;BME280;10990;48.174;9.782;2023-03-21T10:39:26;95833.28;;;16.93;100.00
21658;BME280;10990;48.174;9.782;2023-03-21T10:41:53;95826.25;;;17.22;100.00
21658;BME280;10990;48.174;9.782;2023-03-21T10:44:28;95831.66;;;16.92;100.00
21658;BME280;10990;48.174;9.782;2023-03-21T10:46:57;95821.16;;;17.42;100.00
21658;BME280;10990;48.174;9.782;2023-03-21T10:49:24;95825.56;;;17.50;100.00
21658;BME280;10990;48.174;9.782;2023-03-21T10:51:54;95823.09;;;17.69;100.00
21658;BME280;10990;48.174;9.782;2023-03-21T10:54:27;95822.19;;;17.62;100.00
21658;BME280;10990;48.174;9.782;2023-03-21T10:56:57;95811.84;;;18.17;100.00
21658;BME280;10990;48.174;9.782;2023-03-21T10:59:27;95827.19;;;17.65;100.00
21658;BME280;10990;48.174;9.782;2023-03-21T11:02:01;95824.09;;;17.83;100.00
21658;BME280;10990;48.174;9.782;2023-03-21T11:04:29;95820.81;;;18.31;100.00
21658;BME280;10990;48.174;9.782;2023-03-21T11:06:57;95828.38;;;17.99;100.00
21658;BME280;10990;48.174;9.782;2023-03-21T11:09:42;95823.66;;;18.01;100.00
21658;BME280;10990;48.174;9.782;2023-03-21T11:12:11;95821.22;;;18.06;100.00
21658;BME280;10990;48.174;9.782;2023-03-21T11:14:41;95823.66;;;18.01;100.00
21658;BME280;10990;48.174;9.782;2023-03-21T11:17:20;95804.59;;;17.89;100.00
21658;BME280;10990;48.174;9.782;2023-03-21T11:19:48;95813.97;;;17.79;100.00
21658;BME280;10990;48.174;9.782;2023-03-21T11:22:16;95809.81;;;18.19;100.00
21658;BME280;10990;48.174;9.782;2023-03-21T11:24:48;95813.94;;;17.42;100.00
21658;BME280;10990;48.174;9.782;2023-03-21T11:27:15;95816.47;;;17.80;100.00
21658;BME280;10990;48.174;9.782;2023-03-21T11:29:47;95806.38;;;18.04;100.00
21658;BME280;10990;48.174;9.782;2023-03-21T11:32:20;95809.34;;;17.73;100.00
21658;BME280;10990;48.174;9.782;2023-03-21T11:34:49;95797.19;;;17.34;100.00
21658;BME280;10990;48.174;9.782;2023-03-21T11:37:20;95797.03;;;17.35;100.00
21658;BME280;10990;48.174;9.782;2023-03-21T11:39:55;95791.66;;;17.72;100.00
21658;BME280;10990;48.174;9.782;2023-03-21T11:42:28;95793.34;;;17.94;100.00
21658;BME280;10990;48.174;9.782;2023-03-21T11:45:09;95783.97;;;17.83;100.00
21658;BME280;10990;48.174;9.782;2023-03-21T11:47:37;95793.03;;;17.67;100.00
21658;BME280;10990;48.174;9.782;2023-03-21T11:50:17;95784.63;;;17.70;100.00
21658;BME280;10990;48.174;9.782;2023-03-21T11:52:53;95775.72;;;17.63;100.00
21658;BME280;10990;48.174;9.782;2023-03-21T11:55:31;95787.28;;;17.13;100.00
21658;BME280;10990;48.174;9.782;2023-03-21T12:01:03;95769.59;;;17.12;100.00
21658;BME280;10990;48.174;9.782;2023-03-21T12:03:46;95769.66;;;17.55;100.00
21658;BME280;10990;48.174;9.782;2023-03-21T12:06:18;95758.16;;;17.54;100.00
21658;BME280;10990;48.174;9.782;2023-03-21T12:08:56;95763.84;;;17.51;100.00
21658;BME280;10990;48.174;9.782;2023-03-21T12:11:30;95761.38;;;17.50;100.00
21658;BME280;10990;48.174;9.782;2023-03-21T12:14:06;95751.63;;;17.42;100.00
21658;BME280;10990;48.174;9.782;2023-03-21T12:16:48;95753.25;;;17.21;100.00
21658;BME280;10990;48.174;9.782;2023-03-21T12:19:48;95752.72;;;17.47;100.00
21658;BME280;10990;48.174;9.782;2023-03-21T12:22:26;95753.53;;;17.48;100.00
21658;BME280;10990;48.174;9.782;2023-03-21T12:24:56;95745.91;;;17.45;100.00
21658;BME280;10990;48.174;9.782;2023-03-21T12:27:32;95728.72;;;17.54;100.00
21658;BME280;10990;48.174;9.782;2023-03-21T12:30:11;95729.09;;;17.51;100.00
21658;BME280;10990;48.174;9.782;2023-03-21T12:33:03;95731.72;;;17.66;100.00
21658;BME280;10990;48.174;9.782;2023-03-21T12:35:49;95728.59;;;17.41;100.00
21658;BME280;10990;48.174;9.782;2023-03-21T12:38:22;95725.13;;;17.25;100.00
21658;BME280;10990;48.174;9.782;2023-03-21T12:41:05;95718.47;;;17.58;100.00
21658;BME280;10990;48.174;9.782;2023-03-21T12:43:41;95706.88;;;17.72;100.00
21658;BME280;10990;48.174;9.782;2023-03-21T12:46:14;95702.78;;;17.76;100.00
21658;BME280;10990;48.174;9.782;2023-03-21T12:48:47;95703.97;;;17.74;100.00
21658;BME280;10990;48.174;9.782;2023-03-21T12:51:18;95703.06;;;17.81;100.00
21658;BME280;10990;48.174;9.782;2023-03-21T12:54:08;95698.16;;;17.63;100.00
21658;BME280;10990;48.174;9.782;2023-03-21T12:56:46;95708.91;;;17.27;100.00
21658;BME280;10990;48.174;9.782;2023-03-21T12:59:22;95702.41;;;17.15;100.00
21658;BME280;10990;48.174;9.782;2023-03-21T13:01:54;95698.53;;;17.39;100.00
21658;BME280;10990;48.174;9.782;2023-03-21T13:04:39;95697.91;;;17.37;100.00
21658;BME280;10990;48.174;9.782;2023-03-21T13:07:11;95699.47;;;17.31;100.00
21658;BME280;10990;48.174;9.782;2023-03-21T13:09:41;95691.72;;;17.36;100.00
21658;BME280;10990;48.174;9.782;2023-03-21T13:12:18;95697.50;;;17.40;100.00
21658;BME280;10990;48.174;9.782;2023-03-21T13:14:58;95689.50;;;17.18;100.00
21658;BME280;10990;48.174;9.782;2023-03-21T13:17:32;95682.69;;;17.37;100.00
21658;BME280;10990;48.174;9.782;2023-03-21T13:20:11;95682.38;;;16.74;100.00
21658;BME280;10990;48.174;9.782;2023-03-21T13:22:44;95682.41;;;16.59;100.00
21658;BME280;10990;48.174;9.782;2023-03-21T13:25:17;95677.69;;;16.91;100.00
21658;BME280;10990;48.174;9.782;2023-03-21T13:27:50;95675.50;;;16.80;100.00